Time;durP1;ratioP1;P1;durP2;ratioP2;P2;SDS_P1;SDS_P2;PMS_P1;PMS_P2;Temp;Humidity;BMP_temperature;BMP_pressure;BME280_temperature;BME280_humidity;BME280_pressure;Samples;Min_cycle;Max_cycle;Signal;HPM_P1;HPM_P2
2022/11/26 00:01:26;;;;;;;3.00;2.50;;;8.20;99.90;;;;;;5145642;28;20503;-61
2022/11/26 00:04:01;;;;;;;3.97;2.67;;;8.20;99.90;;;;;;5128127;28;20046;-62
2022/11/26 00:06:36;;;;;;;4.53;2.90;;;8.10;99.90;;;;;;5110666;28;20061;-62
2022/11/26 00:09:17;;;;;;;6.00;2.35;;;8.10;99.90;;;;;;5136264;28;20046;-61
2022/11/26 00:11:56;;;;;;;5.57;2.47;;;8.10;99.90;;;;;;5153265;28;20040;-62
2022/11/26 00:14:33;;;;;;;2.90;1.80;;;8.10;99.90;;;;;;5136888;28;20061;-62
2022/11/26 00:17:18;;;;;;;2.70;2.05;;;8.00;99.90;;;;;;5137483;28;20061;-61
2022/11/26 00:19:52;;;;;;;2.78;2.00;;;8.00;99.90;;;;;;5116507;29;20027;-61
2022/11/26 00:22:29;;;;;;;1.98;1.80;;;7.90;99.90;;;;;;5113342;29;20051;-61
2022/11/26 00:25:00;;;;;;;3.05;2.00;;;7.90;99.90;;;;;;5133853;29;20033;-61
2022/11/26 00:27:31;;;;;;;2.70;1.50;;;7.80;99.90;;;;;;5133766;29;20027;-63
2022/11/26 00:30:16;;;;;;;2.75;1.95;;;7.80;99.90;;;;;;5128302;28;20035;-63
2022/11/26 00:32:51;;;;;;;2.97;1.60;;;7.80;99.90;;;;;;5134793;28;20042;-63
2022/11/26 00:35:22;;;;;;;3.72;1.75;;;7.80;99.90;;;;;;5120503;28;20034;-61
2022/11/26 00:37:57;;;;;;;2.92;2.13;;;7.80;99.90;;;;;;5135910;28;20035;-63
2022/11/26 00:40:32;;;;;;;3.58;2.15;;;7.80;99.90;;;;;;5153378;28;20057;-61
2022/11/26 00:43:03;;;;;;;;;;;7.80;99.90;;;;;;5135593;28;20046;-61
2022/11/26 00:45:34;;;;;;;4.57;1.58;;;7.70;99.90;;;;;;5119345;28;19981;-62
2022/11/26 00:48:05;;;;;;;3.15;1.80;;;7.80;99.90;;;;;;5135767;28;20031;-61
2022/11/26 00:50:53;;;;;;;2.15;1.50;;;7.60;99.90;;;;;;5120614;28;20504;-61
2022/11/26 00:53:28;;;;;;;2.67;1.80;;;7.60;99.90;;;;;;5153140;28;20276;-64
2022/11/26 00:56:04;;;;;;;1.83;1.58;;;7.40;99.90;;;;;;5151448;28;20026;-61
2022/11/26 00:58:40;;;;;;;2.03;1.40;;;7.40;99.90;;;;;;5132145;28;20034;-61
2022/11/26 01:01:20;;;;;;;2.75;1.60;;;7.30;99.90;;;;;;5204307;23;20048;-62
2022/11/26 01:03:54;;;;;;;2.45;1.70;;;7.20;99.90;;;;;;5134501;28;20049;-61
2022/11/26 01:06:33;;;;;;;5.00;2.47;;;7.10;99.90;;;;;;5128594;28;20058;-62
2022/11/26 01:09:12;;;;;;;2.92;2.17;;;7.00;99.90;;;;;;5155014;28;20036;-59
2022/11/26 01:11:46;;;;;;;3.55;2.47;;;7.00;99.90;;;;;;5148045;28;20026;-61
2022/11/26 01:14:21;;;;;;;3.00;2.50;;;6.90;99.90;;;;;;5150096;28;20030;-61
2022/11/26 01:16:56;;;;;;;5.85;3.78;;;6.90;99.90;;;;;;5137126;28;20052;-59
2022/11/26 01:19:30;;;;;;;6.82;3.30;;;6.90;99.90;;;;;;5122456;28;20047;-59
2022/11/26 01:22:02;;;;;;;7.30;3.83;;;6.90;99.90;;;;;;5139013;28;20196;-60
2022/11/26 01:24:35;;;;;;;5.82;4.30;;;6.90;99.90;;;;;;5129892;28;20038;-59
2022/11/26 01:27:12;;;;;;;9.43;4.82;;;7.00;99.90;;;;;;5118876;28;20049;-59
2022/11/26 01:29:46;;;;;;;9.32;5.80;;;7.00;99.90;;;;;;5136148;28;20041;-61
2022/11/26 01:32:22;;;;;;;10.35;6.35;;;7.00;99.90;;;;;;5131524;28;20039;-59
2022/11/26 01:34:59;;;;;;;8.15;5.18;;;7.00;99.90;;;;;;5127042;28;20027;-60
2022/11/26 01:37:30;;;;;;;8.75;5.45;;;7.00;99.90;;;;;;5119341;28;20030;-60
2022/11/26 01:40:03;;;;;;;9.10;5.82;;;7.00;99.90;;;;;;5135968;28;20219;-60
2022/11/26 01:42:42;;;;;;;9.13;6.18;;;7.00;99.90;;;;;;5119308;28;20064;-59
2022/11/26 01:45:21;;;;;;;11.10;6.07;;;6.90;99.90;;;;;;5127327;28;20056;-60
2022/11/26 01:47:57;;;;;;;8.32;5.32;;;7.00;99.90;;;;;;5172722;28;20038;-60
2022/11/26 01:50:31;;;;;;;10.73;5.70;;;7.00;99.90;;;;;;5155697;28;20169;-60
2022/11/26 01:53:05;;;;;;;9.25;5.88;;;7.00;99.90;;;;;;5139762;28;20042;-59
2022/11/26 01:55:50;;;;;;;11.90;6.68;;;7.10;99.90;;;;;;5154388;28;20040;-60
2022/11/26 01:58:36;;;;;;;;;;;7.10;99.90;;;;;;5155792;28;20038;-60
2022/11/26 02:01:07;;;;;;;8.10;5.10;;;7.20;99.90;;;;;;5138457;28;19918;-60
2022/11/26 02:04:06;;;;;;;9.25;5.95;;;7.20;99.90;;;;;;5129214;28;20522;-60
2022/11/26 02:06:39;;;;;;;9.10;5.60;;;7.30;99.90;;;;;;5116993;28;20354;-59
2022/11/26 02:09:11;;;;;;;8.05;5.00;;;7.30;99.90;;;;;;5155451;28;20454;-60
2022/11/26 02:11:46;;;;;;;8.90;5.60;;;7.30;99.90;;;;;;5131899;28;20046;-62
2022/11/26 02:14:40;;;;;;;;;;;7.40;99.90;;;;;;5151832;28;20038;-60
2022/11/26 02:17:40;;;;;;;8.63;5.05;;;7.40;99.90;;;;;;5118467;28;19910;-62
2022/11/26 02:20:55;;;;;;;10.35;5.60;;;7.40;99.90;;;;;;5152371;28;20354;-60
2022/11/26 02:24:03;;;;;;;11.13;6.10;;;7.50;99.90;;;;;;5098125;28;20042;-61
2022/11/26 02:26:42;;;;;;;7.45;4.97;;;7.50;99.90;;;;;;5135027;28;20037;-60
2022/11/26 02:29:41;;;;;;;8.20;5.35;;;7.50;99.90;;;;;;5134793;28;20049;-59
2022/11/26 02:32:44;;;;;;;7.85;4.70;;;7.60;99.90;;;;;;5135555;28;20044;-59
2022/11/26 02:35:43;;;;;;;7.95;5.22;;;7.60;99.90;;;;;;5132320;28;20064;-60
2022/11/26 02:38:23;;;;;;;7.95;4.70;;;7.70;99.90;;;;;;5154043;28;20243;-60
2022/11/26 02:41:00;;;;;;;7.65;5.38;;;7.70;99.90;;;;;;5138318;28;20234;-60
2022/11/26 02:43:36;;;;;;;6.68;4.72;;;7.70;99.90;;;;;;5137384;28;20034;-60
2022/11/26 02:46:13;;;;;;;8.40;4.35;;;7.70;99.90;;;;;;5138149;28;20045;-60
2022/11/26 02:49:01;;;;;;;7.40;4.50;;;7.70;99.90;;;;;;5154715;28;20042;-60
2022/11/26 02:51:35;;;;;;;7.80;4.07;;;7.70;99.90;;;;;;5168352;28;20030;-60
2022/11/26 02:54:13;;;;;;;7.97;5.35;;;7.80;99.90;;;;;;5170550;28;20330;-62
2022/11/26 02:56:56;;;;;;;5.72;4.28;;;7.80;99.90;;;;;;5136119;28;20034;-59
2022/11/26 02:59:30;;;;;;;5.68;3.88;;;7.80;99.90;;;;;;5153974;28;20042;-61
2022/11/26 03:02:14;;;;;;;6.22;4.22;;;7.80;99.90;;;;;;5135622;28;20376;-60
2022/11/26 03:04:52;;;;;;;6.95;4.25;;;7.80;99.90;;;;;;5117925;28;20050;-62
2022/11/26 03:07:28;;;;;;;5.53;3.72;;;7.80;99.90;;;;;;5144543;28;20050;-60
2022/11/26 03:10:05;;;;;;;7.55;4.22;;;7.90;99.90;;;;;;5151762;28;20307;-61
2022/11/26 03:12:36;;;;;;;6.78;4.32;;;7.80;99.90;;;;;;5117715;28;20307;-62
2022/11/26 03:15:08;;;;;;;7.85;4.38;;;7.80;99.90;;;;;;5164830;28;20034;-59
2022/11/26 03:17:41;;;;;;;7.50;4.80;;;7.80;99.90;;;;;;5138100;28;20026;-60
2022/11/26 03:20:15;;;;;;;6.60;4.57;;;7.90;99.90;;;;;;5167243;28;20030;-62
2022/11/26 03:22:48;;;;;;;5.57;4.10;;;7.80;99.90;;;;;;5119153;28;20065;-60
2022/11/26 03:25:26;;;;;;;6.32;4.30;;;7.80;99.90;;;;;;5152393;28;20038;-62
2022/11/26 03:28:03;;;;;;;7.32;4.32;;;7.80;99.90;;;;;;5171765;28;20050;-61
2022/11/26 03:30:37;;;;;;;6.07;3.78;;;7.80;99.90;;;;;;5154378;28;20033;-61
2022/11/26 03:33:13;;;;;;;5.93;3.87;;;7.80;99.90;;;;;;5153569;28;20507;-60
2022/11/26 03:35:47;;;;;;;10.45;5.05;;;7.80;99.90;;;;;;5169945;28;20348;-60
2022/11/26 03:38:21;;;;;;;5.72;4.53;;;7.80;99.90;;;;;;5153768;28;20049;-62
2022/11/26 03:40:57;;;;;;;;;;;7.80;99.90;;;;;;5157594;28;20049;-61
2022/11/26 03:43:28;;;;;;;;;;;7.80;99.90;;;;;;5158013;28;19906;-61
2022/11/26 03:45:59;;;;;;;7.35;4.35;;;7.80;99.90;;;;;;5156616;28;19905;-61
2022/11/26 03:48:30;;;;;;;6.18;4.28;;;7.80;99.90;;;;;;5158010;28;20337;-60
2022/11/26 03:51:07;;;;;;;6.28;4.75;;;7.80;99.90;;;;;;5157451;28;20292;-65
2022/11/26 03:53:41;;;;;;;6.43;4.88;;;7.80;99.90;;;;;;5138702;28;20041;-63
2022/11/26 03:56:14;;;;;;;;;;;7.90;99.90;;;;;;5149889;28;20030;-60
2022/11/26 03:58:45;;;;;;;6.40;3.83;;;7.90;99.90;;;;;;5137838;28;20187;-64
2022/11/26 04:01:20;;;;;;;8.35;4.00;;;7.90;99.90;;;;;;5140798;28;20072;-62
2022/11/26 04:03:51;;;;;;;7.32;5.07;;;7.80;99.90;;;;;;5171039;28;20037;-61
2022/11/26 04:06:23;;;;;;;5.95;4.40;;;7.90;99.90;;;;;;5115366;28;20306;-60
2022/11/26 04:08:57;;;;;;;6.75;4.32;;;7.90;99.90;;;;;;5141388;28;20050;-60
2022/11/26 04:11:28;;;;;;;7.40;4.75;;;7.90;99.90;;;;;;5125411;28;20030;-61
2022/11/26 04:14:02;;;;;;;9.00;5.30;;;7.90;99.90;;;;;;5156775;28;20035;-61
2022/11/26 04:16:33;;;;;;;6.85;4.53;;;7.90;99.90;;;;;;5125491;28;20038;-62
2022/11/26 04:19:04;;;;;;;9.38;4.85;;;7.90;99.90;;;;;;5140813;28;20048;-61
2022/11/26 04:21:38;;;;;;;7.90;5.05;;;7.90;99.90;;;;;;5174747;28;20026;-61
2022/11/26 04:24:12;;;;;;;9.18;5.57;;;7.90;99.90;;;;;;5140415;28;20030;-62
2022/11/26 04:26:43;;;;;;;9.98;4.65;;;7.90;99.90;;;;;;5140272;28;20030;-60
2022/11/26 04:29:17;;;;;;;7.53;4.35;;;7.90;99.90;;;;;;5136900;28;20185;-61
2022/11/26 04:31:50;;;;;;;9.35;5.10;;;7.90;99.90;;;;;;5144920;28;20223;-61
2022/11/26 04:34:21;;;;;;;7.68;5.15;;;7.90;99.90;;;;;;5139883;28;20048;-62
2022/11/26 04:36:52;;;;;;;8.27;5.40;;;7.90;99.90;;;;;;5140693;28;20041;-61
2022/11/26 04:39:23;;;;;;;7.38;5.43;;;7.90;99.90;;;;;;5174549;28;20026;-60
2022/11/26 04:41:55;;;;;;;8.73;5.13;;;7.90;99.90;;;;;;5174485;28;20022;-61
2022/11/26 04:44:28;;;;;;;7.78;4.43;;;7.90;99.90;;;;;;5167956;28;20023;-63
2022/11/26 04:47:02;;;;;;;7.77;5.03;;;7.90;99.90;;;;;;5127200;28;20042;-64
2022/11/26 04:49:36;;;;;;;7.40;5.13;;;7.90;99.90;;;;;;5140526;28;20268;-64
2022/11/26 04:52:08;;;;;;;9.82;5.65;;;7.90;99.90;;;;;;5139796;28;20046;-61
2022/11/26 04:54:42;;;;;;;7.88;4.43;;;8.00;99.90;;;;;;5156150;28;20239;-59
2022/11/26 04:57:16;;;;;;;8.73;5.07;;;8.00;99.90;;;;;;5131503;28;20223;-60
2022/11/26 04:59:50;;;;;;;9.25;5.45;;;7.90;99.90;;;;;;5139621;28;20267;-61
2022/11/26 05:02:21;;;;;;;9.80;5.40;;;7.70;99.90;;;;;;5133419;28;20526;-62
2022/11/26 05:04:56;;;;;;;8.05;5.40;;;7.60;99.90;;;;;;5145944;28;20058;-60
2022/11/26 05:07:30;;;;;;;6.97;5.10;;;7.50;99.90;;;;;;5139757;28;20042;-62
2022/11/26 05:10:04;;;;;;;10.13;5.80;;;7.50;99.90;;;;;;5139987;28;20345;-61
2022/11/26 05:12:36;;;;;;;9.32;6.38;;;7.50;99.90;;;;;;5123299;28;20038;-62
2022/11/26 05:15:09;;;;;;;8.35;5.75;;;7.50;99.90;;;;;;5171508;28;20124;-61
2022/11/26 05:17:43;;;;;;;8.55;5.45;;;7.50;99.90;;;;;;5136675;28;20052;-64
2022/11/26 05:20:26;;;;;;;10.02;5.93;;;7.50;99.90;;;;;;5139259;28;20076;-62
2022/11/26 05:23:02;;;;;;;9.18;5.40;;;7.40;99.90;;;;;;5153863;28;20037;-61
2022/11/26 05:25:46;;;;;;;12.25;5.88;;;7.30;99.90;;;;;;5147577;28;20029;-62
2022/11/26 05:28:17;;;;;;;9.80;6.18;;;7.20;99.90;;;;;;5150463;28;20038;-62
2022/11/26 05:30:49;;;;;;;11.93;6.18;;;7.20;99.90;;;;;;5153340;28;20026;-61
2022/11/26 05:33:22;;;;;;;12.45;7.10;;;7.10;99.90;;;;;;5155030;28;20034;-59
2022/11/26 05:35:59;;;;;;;13.05;6.90;;;7.10;99.90;;;;;;5130021;28;20030;-61
2022/11/26 05:38:32;;;;;;;9.65;6.47;;;7.10;99.90;;;;;;5119712;28;20038;-61
2022/11/26 05:41:06;;;;;;;12.20;7.13;;;7.10;99.90;;;;;;5135830;28;20040;-62
2022/11/26 05:43:41;;;;;;;10.52;6.32;;;7.20;99.90;;;;;;5128929;28;20053;-61
2022/11/26 05:46:15;;;;;;;13.80;6.70;;;7.20;99.90;;;;;;5139312;28;20054;-61
2022/11/26 05:48:49;;;;;;;10.20;6.00;;;7.20;99.90;;;;;;5173172;28;20315;-61
2022/11/26 05:51:23;;;;;;;13.10;6.88;;;7.30;99.90;;;;;;5173051;28;20045;-61
2022/11/26 05:53:57;;;;;;;10.85;6.47;;;7.30;99.90;;;;;;5172525;28;20030;-61
2022/11/26 05:56:30;;;;;;;13.27;6.40;;;7.40;99.90;;;;;;5155079;28;20052;-61
2022/11/26 05:59:06;;;;;;;8.82;6.25;;;7.40;99.90;;;;;;5154902;28;20254;-61
2022/11/26 06:01:42;;;;;;;9.60;5.75;;;7.40;99.90;;;;;;5152891;28;20052;-61
2022/11/26 06:04:13;;;;;;;11.95;6.13;;;7.50;99.90;;;;;;5121667;28;20053;-61
2022/11/26 06:06:50;;;;;;;11.55;5.45;;;7.50;99.90;;;;;;5128434;28;20035;-61
2022/11/26 06:09:21;;;;;;;9.23;5.22;;;7.50;99.90;;;;;;5135090;28;20056;-61
2022/11/26 06:11:54;;;;;;;10.23;5.97;;;7.60;99.90;;;;;;5145732;28;20046;-62
2022/11/26 06:14:28;;;;;;;8.80;5.73;;;7.60;99.90;;;;;;5149804;28;20033;-62
2022/11/26 06:17:01;;;;;;;8.03;5.80;;;7.70;99.90;;;;;;5170293;28;20048;-62
2022/11/26 06:19:32;;;;;;;9.63;5.38;;;7.70;99.90;;;;;;5138389;28;20222;-63
2022/11/26 06:22:04;;;;;;;10.02;5.55;;;7.70;99.90;;;;;;5168420;28;20040;-62
2022/11/26 06:24:49;;;;;;;9.45;5.65;;;7.80;99.90;;;;;;5163593;28;20034;-61
2022/11/26 06:27:21;;;;;;;8.32;5.50;;;7.80;99.90;;;;;;5169885;28;20034;-62
2022/11/26 06:29:57;;;;;;;8.32;6.35;;;7.80;99.90;;;;;;5121941;28;20074;-62
2022/11/26 06:32:32;;;;;;;7.05;4.78;;;7.80;99.90;;;;;;5138219;28;20041;-64
2022/11/26 06:35:04;;;;;;;8.80;5.97;;;7.90;99.90;;;;;;5138159;28;20069;-63
2022/11/26 06:37:35;;;;;;;9.15;5.50;;;7.90;99.90;;;;;;5147866;28;20031;-63
2022/11/26 06:40:16;;;;;;;9.32;5.80;;;7.90;99.90;;;;;;5171830;28;20026;-63
2022/11/26 06:42:50;;;;;;;7.78;5.65;;;7.90;99.90;;;;;;5154805;28;20036;-62
2022/11/26 06:45:22;;;;;;;11.05;6.00;;;7.90;99.90;;;;;;5171775;28;20026;-63
2022/11/26 06:47:57;;;;;;;9.65;6.05;;;8.00;99.90;;;;;;5167319;28;20445;-63
2022/11/26 06:50:29;;;;;;;10.45;5.80;;;8.00;99.90;;;;;;5154507;28;20349;-61
2022/11/26 06:53:00;;;;;;;11.40;5.60;;;8.00;99.90;;;;;;5133699;28;20034;-62
2022/11/26 06:55:38;;;;;;;223.50;79.78;;;8.00;99.90;;;;;;5129336;28;20260;-64
2022/11/26 06:58:09;;;;;;;265.17;94.50;;;8.00;99.90;;;;;;5131679;28;20239;-62
2022/11/26 07:00:43;;;;;;;92.70;39.20;;;8.00;99.90;;;;;;5136757;28;20038;-63
2022/11/26 07:03:16;;;;;;;101.15;49.03;;;8.00;99.90;;;;;;5135315;28;20042;-62
2022/11/26 07:05:50;;;;;;;33.70;17.40;;;8.00;99.90;;;;;;5109750;29;20362;-63
2022/11/26 07:08:27;;;;;;;210.07;117.93;;;8.00;99.90;;;;;;5156282;28;20034;-65
2022/11/26 07:11:06;;;;;;;10.50;7.97;;;8.00;99.90;;;;;;5122163;28;20040;-61
2022/11/26 07:13:38;;;;;;;45.38;27.88;;;8.00;99.90;;;;;;5146691;28;20038;-63
2022/11/26 07:16:10;;;;;;;18.00;13.88;;;8.00;99.90;;;;;;5131130;28;20045;-63
2022/11/26 07:18:43;;;;;;;9.60;7.15;;;8.10;99.90;;;;;;5146778;28;20021;-62
2022/11/26 07:21:16;;;;;;;14.45;6.40;;;8.10;99.90;;;;;;5147351;28;20033;-62
2022/11/26 07:23:47;;;;;;;8.50;5.45;;;8.20;99.90;;;;;;5128718;28;20034;-63
2022/11/26 07:26:22;;;;;;;12.85;8.48;;;8.10;99.90;;;;;;5148880;28;20240;-63
2022/11/26 07:28:53;;;;;;;17.02;11.15;;;8.20;99.90;;;;;;5145505;28;20049;-64
2022/11/26 07:31:24;;;;;;;12.48;6.80;;;8.20;99.90;;;;;;5162859;28;20052;-63
2022/11/26 07:33:56;;;;;;;11.48;7.35;;;8.20;99.90;;;;;;5145903;28;20060;-62
2022/11/26 07:36:30;;;;;;;13.07;7.68;;;8.20;99.90;;;;;;5144746;28;20047;-62
2022/11/26 07:39:06;;;;;;;8.65;5.95;;;8.10;99.90;;;;;;5137247;28;20045;-63
2022/11/26 07:41:38;;;;;;;10.68;5.95;;;8.20;99.90;;;;;;5144628;28;20165;-64
2022/11/26 07:44:13;;;;;;;11.23;6.38;;;8.20;99.90;;;;;;5165590;28;20056;-62
2022/11/26 07:46:47;;;;;;;11.48;6.15;;;8.20;99.90;;;;;;5143088;28;20307;-62
2022/11/26 07:49:21;;;;;;;15.05;8.05;;;8.10;99.90;;;;;;5163197;28;20038;-63
2022/11/26 07:51:55;;;;;;;21.20;11.45;;;8.00;99.90;;;;;;5164396;28;20061;-62
2022/11/26 07:54:27;;;;;;;9.60;5.87;;;7.90;99.90;;;;;;5148509;28;20059;-62
2022/11/26 07:56:58;;;;;;;7.28;5.80;;;7.80;99.90;;;;;;5144754;28;20603;-64
2022/11/26 07:59:29;;;;;;;11.27;7.78;;;7.80;99.90;;;;;;5145657;28;20057;-65
2022/11/26 08:02:18;;;;;;;9.63;5.68;;;7.90;99.90;;;;;;5147189;28;20215;-62
2022/11/26 08:04:53;;;;;;;11.05;7.53;;;8.00;99.90;;;;;;5158934;28;20046;-62
2022/11/26 08:07:27;;;;;;;15.38;8.35;;;8.00;99.90;;;;;;5148463;28;20045;-64
2022/11/26 08:10:01;;;;;;;7.78;5.40;;;8.00;99.90;;;;;;5148287;28;20049;-65
2022/11/26 08:12:32;;;;;;;7.95;5.50;;;8.10;99.90;;;;;;5150312;28;20048;-64
2022/11/26 08:15:09;;;;;;;9.00;5.05;;;8.10;99.90;;;;;;5156956;28;20282;-64
2022/11/26 08:17:45;;;;;;;9.10;6.20;;;8.20;99.90;;;;;;5141176;28;20038;-63
2022/11/26 08:20:16;;;;;;;8.48;5.53;;;8.30;99.90;;;;;;5142330;28;20438;-64
2022/11/26 08:22:48;;;;;;;8.95;4.75;;;8.20;99.90;;;;;;5159388;28;20046;-64
2022/11/26 08:25:22;;;;;;;7.72;4.40;;;8.30;99.90;;;;;;5140751;28;20033;-61
2022/11/26 08:27:55;;;;;;;7.30;4.38;;;8.30;99.90;;;;;;5139757;28;20072;-63
2022/11/26 08:30:28;;;;;;;7.50;5.00;;;8.20;99.90;;;;;;5156793;28;20040;-63
2022/11/26 08:33:04;;;;;;;7.30;4.43;;;8.30;99.90;;;;;;5155583;28;20334;-64
2022/11/26 08:35:38;;;;;;;7.60;3.85;;;8.30;99.90;;;;;;5141226;28;20053;-62
2022/11/26 08:38:14;;;;;;;4.88;3.78;;;8.30;99.90;;;;;;5120709;28;20045;-62
2022/11/26 08:40:48;;;;;;;4.72;3.78;;;8.40;99.90;;;;;;5152449;28;20045;-65
2022/11/26 08:43:20;;;;;;;9.37;3.27;;;8.50;99.90;;;;;;5131320;28;20046;-62
2022/11/26 08:45:57;;;;;;;5.03;3.35;;;8.50;99.90;;;;;;5155771;28;20053;-63
2022/11/26 08:48:32;;;;;;;7.93;3.90;;;8.50;99.90;;;;;;5128950;28;20039;-64
2022/11/26 08:51:06;;;;;;;8.27;3.33;;;8.60;99.90;;;;;;5121903;28;20031;-64
2022/11/26 08:53:38;;;;;;;4.47;3.00;;;8.60;99.90;;;;;;5133677;28;20068;-63
2022/11/26 08:56:11;;;;;;;7.90;3.22;;;8.80;99.90;;;;;;5145188;28;20042;-64
2022/11/26 08:58:50;;;;;;;6.03;3.22;;;9.00;99.90;;;;;;5120137;28;20047;-64
2022/11/26 09:01:26;;;;;;;4.65;2.80;;;9.20;99.90;;;;;;5110423;28;20299;-64
2022/11/26 09:04:01;;;;;;;4.25;3.15;;;9.60;99.90;;;;;;5138114;28;20044;-63
2022/11/26 09:06:37;;;;;;;5.18;3.22;;;9.80;99.90;;;;;;5145539;28;20060;-63
2022/11/26 09:09:11;;;;;;;5.38;3.67;;;10.00;99.90;;;;;;5152605;28;20034;-62
2022/11/26 09:11:49;;;;;;;4.15;3.17;;;10.10;96.90;;;;;;5155726;28;20548;-61
2022/11/26 09:14:26;;;;;;;4.72;3.42;;;10.20;85.90;;;;;;5172953;28;20037;-63
2022/11/26 09:17:03;;;;;;;4.10;2.97;;;10.10;99.90;;;;;;5139458;28;20045;-62
2022/11/26 09:19:36;;;;;;;4.03;3.05;;;9.80;99.80;;;;;;5138662;28;20034;-63
2022/11/26 09:22:08;;;;;;;5.20;3.33;;;9.70;99.90;;;;;;5155122;28;20036;-61
2022/11/26 09:24:41;;;;;;;4.47;2.90;;;9.70;99.90;;;;;;5154339;28;20034;-62
2022/11/26 09:27:15;;;;;;;5.75;3.17;;;9.60;99.90;;;;;;5129479;28;20331;-61
2022/11/26 09:29:46;;;;;;;5.65;3.22;;;9.50;99.90;;;;;;5140923;28;20042;-63
2022/11/26 09:32:18;;;;;;;8.38;2.65;;;9.60;99.90;;;;;;5155133;28;20041;-62
2022/11/26 09:34:51;;;;;;;5.75;3.42;;;9.60;96.70;;;;;;5156825;28;20034;-62
2022/11/26 09:37:22;;;;;;;7.80;3.20;;;9.60;99.90;;;;;;5139310;28;20046;-62
2022/11/26 09:39:56;;;;;;;4.55;3.00;;;9.70;99.90;;;;;;5147764;28;20034;-63
2022/11/26 09:42:51;;;;;;;3.67;2.85;;;9.90;99.90;;;;;;5144392;28;20038;-61
2022/11/26 09:45:38;;;;;;;3.28;2.97;;;9.80;87.20;;;;;;5151126;28;20038;-63
2022/11/26 09:48:18;;;;;;;5.80;3.35;;;9.80;98.80;;;;;;5154801;28;20337;-61
2022/11/26 09:51:01;;;;;;;3.78;2.97;;;9.80;87.90;;;;;;5172653;28;20019;-61
2022/11/26 09:53:39;;;;;;;5.30;3.40;;;9.80;99.90;;;;;;5126971;28;20042;-61
2022/11/26 09:56:21;;;;;;;4.85;3.05;;;9.80;92.00;;;;;;5123508;28;20034;-62
2022/11/26 09:59:01;;;;;;;7.13;4.15;;;9.80;99.90;;;;;;5160330;28;20590;-62
2022/11/26 10:01:33;;;;;;;5.00;3.58;;;9.90;96.90;;;;;;5148087;28;20057;-63
2022/11/26 10:04:13;;;;;;;6.57;3.47;;;9.90;91.80;;;;;;5163182;28;20036;-62
2022/11/26 10:07:05;;;;;;;4.57;3.17;;;10.00;95.40;;;;;;5128184;28;20060;-63
2022/11/26 10:09:49;;;;;;;4.15;3.20;;;10.00;90.80;;;;;;5163732;28;20061;-63
2022/11/26 10:12:33;;;;;;;7.30;3.30;;;10.10;68.80;;;;;;5119355;28;20046;-64
2022/11/26 10:15:25;;;;;;;4.28;3.05;;;10.00;36.30;;;;;;5122889;28;20042;-63
2022/11/26 10:18:13;;;;;;;4.25;2.70;;;10.10;42.60;;;;;;5137859;28;20038;-63
2022/11/26 10:21:06;;;;;;;7.95;4.25;;;10.00;12.90;;;;;;5138260;28;20034;-62
2022/11/26 10:23:57;;;;;;;11.95;7.30;;;10.20;16.70;;;;;;5138833;28;20030;-64
2022/11/26 10:26:33;;;;;;;8.70;3.33;;;10.20;13.10;;;;;;5134945;28;20431;-62
2022/11/26 10:29:37;;;;;;;6.20;3.20;;;10.40;13.30;;;;;;5134262;28;20038;-62
2022/11/26 10:32:46;;;;;;;3.35;2.47;;;10.70;1.00;;;;;;5127749;28;20030;-62
2022/11/26 10:35:27;;;;;;;5.13;3.15;;;10.50;1.00;;;;;;5122803;28;20050;-62
2022/11/26 10:37:58;;;;;;;4.82;3.28;;;10.50;1.00;;;;;;5133923;28;20029;-62
2022/11/26 10:40:32;;;;;;;7.65;4.72;;;10.60;1.00;;;;;;5133637;28;20342;-63
2022/11/26 10:43:09;;;;;;;5.30;3.97;;;10.80;1.00;;;;;;5151464;28;20041;-62
2022/11/26 10:45:52;;;;;;;3.83;2.83;;;10.70;1.00;;;;;;5146441;28;20045;-64
2022/11/26 10:48:32;;;;;;;3.55;2.75;;;10.70;1.00;;;;;;5141645;28;20054;-62
2022/11/26 10:51:18;;;;;;;5.15;3.47;;;10.80;1.00;;;;;;5118044;28;20051;-63
2022/11/26 10:53:59;;;;;;;6.78;3.88;;;11.20;1.00;;;;;;5117612;28;20038;-62
2022/11/26 10:56:33;;;;;;;6.20;3.13;;;11.40;1.00;;;;;;5127607;28;20045;-63
2022/11/26 10:59:17;;;;;;;4.28;3.40;;;11.60;1.00;;;;;;5117921;28;20041;-62
2022/11/26 11:01:55;;;;;;;3.53;2.72;;;11.60;1.00;;;;;;5128426;28;20034;-63
2022/11/26 11:04:31;;;;;;;3.50;2.63;;;11.50;1.00;;;;;;5153857;28;20037;-64
2022/11/26 11:07:03;;;;;;;5.65;3.33;;;11.20;1.00;;;;;;5136918;28;20042;-62
2022/11/26 11:10:03;;;;;;;6.45;3.22;;;10.80;1.00;;;;;;5152290;28;20110;-62
2022/11/26 11:13:11;;;;;;;5.00;2.70;;;10.80;1.00;;;;;;5171346;28;20040;-62
2022/11/26 11:15:46;;;;;;;4.32;2.92;;;10.80;1.00;;;;;;5136999;28;20307;-62
2022/11/26 11:18:20;;;;;;;3.70;2.83;;;10.60;1.00;;;;;;5153258;28;20335;-64
2022/11/26 11:20:57;;;;;;;;;;;10.50;1.00;;;;;;5119133;28;20039;-62
2022/11/26 11:23:31;;;;;;;5.30;2.90;;;10.80;1.00;;;;;;5119486;28;19918;-63
2022/11/26 11:26:07;;;;;;;3.90;2.42;;;10.80;1.00;;;;;;5132996;28;20034;-63
2022/11/26 11:28:41;;;;;;;5.82;3.00;;;10.90;1.00;;;;;;5137208;28;20053;-61
2022/11/26 11:31:23;;;;;;;4.32;2.90;;;10.70;1.00;;;;;;5135189;28;20034;-61
2022/11/26 11:34:21;;;;;;;4.72;2.88;;;10.40;5.50;;;;;;5138504;28;20030;-60
2022/11/26 11:37:15;;;;;;;37.90;15.13;;;10.40;1.00;;;;;;5116771;28;20046;-62
2022/11/26 11:40:08;;;;;;;4.90;3.07;;;10.70;4.00;;;;;;5133554;28;20040;-63
2022/11/26 11:42:40;;;;;;;4.57;2.83;;;11.00;1.00;;;;;;5133029;28;20014;-65
2022/11/26 11:45:35;;;;;;;8.60;3.63;;;11.10;1.00;;;;;;5124311;28;20034;-62
2022/11/26 11:48:51;;;;;;;5.10;3.33;;;11.10;1.00;;;;;;5152999;28;20038;-62
2022/11/26 11:51:35;;;;;;;22.05;11.45;;;11.30;1.00;;;;;;5169716;28;20337;-62
2022/11/26 11:54:35;;;;;;;5.65;3.63;;;11.50;1.00;;;;;;5137514;28;20351;-61
2022/11/26 11:57:32;;;;;;;490.67;285.45;;;11.40;1.00;;;;;;5167208;28;20041;-61
2022/11/26 12:00:11;;;;;;;44.88;25.45;;;11.80;1.00;;;;;;5152994;28;20030;-61
2022/11/26 12:02:58;;;;;;;7.70;4.22;;;12.20;1.00;;;;;;5140082;28;20034;-61
2022/11/26 12:05:35;;;;;;;19.45;12.38;;;11.90;1.00;;;;;;5130619;28;20069;-61
2022/11/26 12:08:55;;;;;;;7.47;4.85;;;11.70;1.00;;;;;;5172848;28;20038;-61
2022/11/26 12:11:48;;;;;;;4.85;3.13;;;11.40;1.00;;;;;;5146126;28;20043;-62
2022/11/26 12:14:41;;;;;;;9.55;6.35;;;12.20;1.00;;;;;;5141732;28;20031;-61
2022/11/26 12:17:38;;;;;;;16.10;10.20;;;11.90;1.00;;;;;;5136242;28;20030;-61
2022/11/26 12:20:13;;;;;;;15.32;9.27;;;11.80;1.00;;;;;;5128875;28;20073;-62
2022/11/26 12:22:58;;;;;;;24.98;15.55;;;11.20;1.00;;;;;;5173646;28;20034;-61
2022/11/26 12:25:33;;;;;;;5.63;3.15;;;11.90;1.00;;;;;;5173807;28;20046;-60
2022/11/26 12:28:20;;;;;;;6.72;4.43;;;11.90;1.00;;;;;;5156300;28;20046;-63
2022/11/26 12:31:16;;;;;;;10.38;5.43;;;12.10;1.00;;;;;;5142857;28;20038;-62
2022/11/26 12:34:04;;;;;;;6.43;4.45;;;12.60;1.00;;;;;;5141264;28;20034;-61
2022/11/26 12:36:56;;;;;;;6.00;4.60;;;13.10;4.70;;;;;;5140603;28;20048;-62
2022/11/26 12:39:44;;;;;;;9.40;6.63;;;12.60;1.00;;;;;;5140877;28;20306;-63
2022/11/26 12:42:21;;;;;;;9.90;6.45;;;12.50;1.00;;;;;;5139935;28;20205;-61
2022/11/26 12:45:02;;;;;;;6.53;5.80;;;11.70;1.00;;;;;;5141828;28;20044;-61
2022/11/26 12:47:37;;;;;;;8.63;3.95;;;11.90;1.00;;;;;;5175085;28;20052;-62
2022/11/26 12:50:35;;;;;;;22.75;20.27;;;11.40;1.00;;;;;;5133953;28;20041;-61
2022/11/26 12:53:28;;;;;;;9.02;5.82;;;11.00;1.00;;;;;;5120011;28;20041;-61
2022/11/26 12:56:08;;;;;;;7.82;4.35;;;10.60;1.00;;;;;;5130694;28;20023;-61
2022/11/26 12:58:50;;;;;;;5.13;3.80;;;10.40;39.00;;;;;;5155102;28;20042;-60
2022/11/26 13:01:26;;;;;;;13.82;9.27;;;10.10;95.40;;;;;;5138767;28;20042;-61
2022/11/26 13:04:01;;;;;;;16.33;9.57;;;10.00;99.90;;;;;;5165331;28;20033;-61
2022/11/26 13:07:00;;;;;;;9.93;4.60;;;9.90;99.90;;;;;;5151953;28;20057;-62
2022/11/26 13:09:57;;;;;;;8.43;4.00;;;10.00;99.90;;;;;;5172933;28;20042;-62
2022/11/26 13:12:51;;;;;;;7.75;5.63;;;10.00;99.90;;;;;;5138093;28;20031;-62
2022/11/26 13:16:08;;;;;;;6.38;4.18;;;10.00;99.90;;;;;;5142951;28;20038;-63
2022/11/26 13:18:48;;;;;;;12.52;6.15;;;10.00;99.90;;;;;;5124292;28;20044;-62
2022/11/26 13:21:29;;;;;;;7.35;4.45;;;10.00;99.90;;;;;;5169411;28;20028;-61
2022/11/26 13:24:18;;;;;;;6.22;4.07;;;9.90;99.90;;;;;;5139283;28;20046;-61
2022/11/26 13:27:41;;;;;;;9.57;6.90;;;9.80;99.90;;;;;;5151326;28;20058;-63
2022/11/26 13:30:35;;;;;;;11.30;8.90;;;9.60;99.90;;;;;;5109572;29;20047;-61
2022/11/26 13:33:18;;;;;;;10.63;5.70;;;9.40;99.90;;;;;;5077414;29;20051;-63
2022/11/26 13:36:23;;;;;;;8.98;6.25;;;9.10;99.90;;;;;;5108002;29;20048;-63
2022/11/26 13:39:40;;;;;;;8.95;6.65;;;8.90;99.90;;;;;;5103593;29;20228;-62
2022/11/26 13:42:14;;;;;;;7.93;5.38;;;8.80;99.90;;;;;;5093527;29;20099;-63
2022/11/26 13:45:16;;;;;;;7.25;5.47;;;8.80;99.90;;;;;;5111085;29;20039;-63
2022/11/26 13:48:01;;;;;;;10.52;5.50;;;8.90;99.90;;;;;;5109383;29;20425;-64
2022/11/26 13:50:45;;;;;;;6.15;4.47;;;9.00;99.90;;;;;;5096672;29;20043;-62
2022/11/26 13:53:35;;;;;;;8.40;4.63;;;9.00;99.90;;;;;;5114224;29;20049;-63
2022/11/26 13:56:08;;;;;;;9.05;5.93;;;9.10;99.90;;;;;;5108855;29;20555;-61